createdAt,value
2017-08-19T00:00:27.703Z,3.70
2017-08-19T00:05:32.493Z,2.77
2017-08-19T00:10:39.295Z,3.07
2017-08-19T00:15:45.339Z,2.37
2017-08-19T00:20:47.711Z,3.13
2017-08-19T00:25:52.394Z,3.00
2017-08-19T00:30:57.239Z,2.73
2017-08-19T00:36:00.403Z,2.70
2017-08-19T00:41:08.358Z,3.20
2017-08-19T00:46:12.463Z,3.20
2017-08-19T00:51:17.005Z,3.50
2017-08-19T00:56:19.278Z,3.87
2017-08-19T01:01:21.537Z,3.90
2017-08-19T01:06:24.236Z,4.43
2017-08-19T01:11:26.590Z,5.13
2017-08-19T01:16:29.144Z,5.83
2017-08-19T01:21:31.771Z,6.40
2017-08-19T01:26:52.100Z,6.57
2017-08-19T01:31:54.193Z,6.47
2017-08-19T01:36:56.154Z,8.70
2017-08-19T01:41:58.087Z,7.70
2017-08-19T01:47:00.615Z,9.00
2017-08-19T01:52:04.271Z,9.20
2017-08-19T01:57:06.799Z,9.37
2017-08-19T02:02:09.114Z,9.40
2017-08-19T02:07:11.850Z,11.00
2017-08-19T02:12:13.775Z,11.23
2017-08-19T02:17:15.781Z,12.53
2017-08-19T02:22:17.715Z,12.40
2017-08-19T02:27:19.651Z,12.07
2017-08-19T02:32:21.713Z,14.10
2017-08-19T02:37:23.671Z,14.53
2017-08-19T02:42:25.646Z,14.00
2017-08-19T02:47:27.621Z,13.70
2017-08-19T02:52:29.672Z,14.33
2017-08-19T02:57:31.620Z,14.30
2017-08-19T03:02:34.813Z,13.33
2017-08-19T03:07:38.493Z,13.43
2017-08-19T03:12:41.041Z,12.30
2017-08-19T03:17:44.182Z,12.60
2017-08-19T03:22:53.604Z,11.73
2017-08-19T03:27:57.059Z,13.00
2017-08-19T03:32:58.996Z,11.63
2017-08-19T03:38:01.004Z,12.07
2017-08-19T03:43:02.945Z,11.50
2017-08-19T03:48:05.987Z,12.00
2017-08-19T03:53:08.305Z,11.33
2017-08-19T03:58:10.280Z,11.23
2017-08-19T04:03:12.564Z,10.27
2017-08-19T04:08:14.634Z,10.43
2017-08-19T04:13:16.658Z,8.73
2017-08-19T04:18:19.000Z,8.90
2017-08-19T04:23:20.971Z,8.03
2017-08-19T04:28:22.972Z,7.20
2017-08-19T04:33:24.965Z,7.87
2017-08-19T04:38:26.924Z,7.53
2017-08-19T04:43:28.879Z,9.00
2017-08-19T04:48:30.823Z,7.53
2017-08-19T04:53:33.056Z,7.40
2017-08-19T04:58:36.287Z,7.57
2017-08-19T05:03:38.247Z,6.47
2017-08-19T05:08:40.566Z,6.80
2017-08-19T05:13:46.909Z,7.43
2017-08-19T05:18:53.086Z,7.07
2017-08-19T05:23:55.184Z,6.10
2017-08-19T05:28:57.205Z,6.90
2017-08-19T05:33:59.563Z,7.87
2017-08-19T05:39:01.564Z,6.83
2017-08-19T05:44:03.547Z,6.30
2017-08-19T05:49:05.468Z,5.80
2017-08-19T05:54:07.424Z,5.43
2017-08-19T05:59:10.283Z,6.83
2017-08-19T06:04:12.343Z,6.27
2017-08-19T06:09:14.324Z,6.33
2017-08-19T06:14:16.251Z,6.10
2017-08-19T06:19:18.251Z,7.27
2017-08-19T06:24:20.211Z,6.07
2017-08-19T06:29:22.358Z,6.87
2017-08-19T06:34:24.307Z,7.83
2017-08-19T06:39:26.257Z,6.50
2017-08-19T06:44:28.197Z,6.30
2017-08-19T06:49:30.265Z,6.40
2017-08-19T06:54:32.220Z,6.60
2017-08-19T06:59:39.944Z,6.40
2017-08-19T07:04:42.241Z,5.23
2017-08-19T07:09:44.653Z,5.10
2017-08-19T07:14:46.656Z,5.60
2017-08-19T07:19:48.625Z,3.97
2017-08-19T07:24:50.624Z,4.37
2017-08-19T07:29:52.592Z,4.40
2017-08-19T07:34:54.547Z,4.17
2017-08-19T07:39:56.512Z,3.57
2017-08-19T07:44:58.469Z,3.33
2017-08-19T07:50:00.566Z,3.53
2017-08-19T07:55:02.527Z,3.63
2017-08-19T08:00:04.472Z,3.30
2017-08-19T08:05:06.571Z,3.83
2017-08-19T08:10:08.582Z,4.07
2017-08-19T08:15:10.560Z,3.03
2017-08-19T08:20:12.622Z,3.00
2017-08-19T08:25:14.892Z,3.43
2017-08-19T08:30:16.844Z,3.17
2017-08-19T08:35:19.160Z,2.90
2017-08-19T08:40:21.356Z,3.17
2017-08-19T08:45:23.589Z,2.47
2017-08-19T08:50:25.888Z,3.63
2017-08-19T08:55:28.107Z,3.27
2017-08-19T09:00:37.011Z,3.60
2017-08-19T09:05:39.004Z,3.57
2017-08-19T09:10:40.963Z,3.10
2017-08-19T09:15:42.935Z,2.60
2017-08-19T09:20:44.873Z,3.90
2017-08-19T09:25:46.815Z,3.90
2017-08-19T09:30:48.775Z,3.47
2017-08-19T09:35:50.733Z,3.37
2017-08-19T09:40:52.797Z,3.40
2017-08-19T09:45:58.458Z,4.00
2017-08-19T09:51:01.374Z,3.70
2017-08-19T09:56:03.552Z,3.20
2017-08-19T10:01:05.612Z,3.43
2017-08-19T10:06:11.431Z,4.13
2017-08-19T10:11:22.428Z,4.20
2017-08-19T10:16:24.611Z,4.20
2017-08-19T10:21:26.594Z,3.43
2017-08-19T10:26:28.589Z,4.03
2017-08-19T10:31:33.402Z,4.90
2017-08-19T10:36:36.213Z,4.43
2017-08-19T10:41:38.408Z,4.33
2017-08-19T10:46:40.541Z,4.50
2017-08-19T10:51:42.615Z,5.50
2017-08-19T10:56:45.739Z,5.90
2017-08-19T11:01:49.048Z,3.00
2017-08-19T11:07:06.820Z,3.30
2017-08-19T11:12:10.629Z,2.70
2017-08-19T11:17:16.672Z,3.40
2017-08-19T11:22:19.624Z,2.73
2017-08-19T11:27:22.748Z,2.73
2017-08-19T11:32:25.889Z,2.97
2017-08-19T11:37:28.842Z,3.80
2017-08-19T11:42:30.944Z,8.70
2017-08-19T11:47:33.424Z,10.70
2017-08-19T11:52:36.610Z,3.43
2017-08-19T11:57:38.645Z,3.33
2017-08-19T12:02:40.773Z,3.23
2017-08-19T12:07:42.850Z,4.50
2017-08-19T12:12:44.839Z,4.87
2017-08-19T12:17:46.932Z,10.50
2017-08-19T12:22:48.916Z,6.80
2017-08-19T12:27:55.377Z,7.10
2017-08-19T12:33:01.984Z,6.43
2017-08-19T12:38:04.225Z,2.87
2017-08-19T12:43:06.452Z,3.53
2017-08-19T12:48:08.519Z,3.20
2017-08-19T12:53:10.496Z,2.83
2017-08-19T12:58:12.446Z,3.20
2017-08-19T13:03:15.676Z,4.03
2017-08-19T13:08:18.945Z,3.87
2017-08-19T13:13:22.228Z,2.80
2017-08-19T13:18:25.419Z,2.93
2017-08-19T13:23:28.611Z,2.13
2017-08-19T13:28:31.883Z,2.17
2017-08-19T13:33:35.091Z,2.77
2017-08-19T13:38:37.761Z,2.40
2017-08-19T13:43:40.916Z,2.43
2017-08-19T13:48:44.292Z,2.30
2017-08-19T13:53:47.404Z,2.60
2017-08-19T13:58:50.562Z,2.37
2017-08-19T14:03:53.891Z,2.70
2017-08-19T14:08:58.019Z,2.37
2017-08-19T14:14:00.451Z,2.30
2017-08-19T14:19:03.691Z,2.90
2017-08-19T14:24:06.801Z,2.27
2017-08-19T14:29:10.015Z,2.67
2017-08-19T14:34:13.172Z,2.77
2017-08-19T14:39:15.198Z,2.40
2017-08-19T14:44:17.822Z,1.90
2017-08-19T14:49:21.047Z,2.10
2017-08-19T14:54:24.168Z,2.23
2017-08-19T14:59:27.387Z,3.23
2017-08-19T15:04:30.538Z,3.13
2017-08-19T15:09:33.804Z,3.00
2017-08-19T15:14:37.022Z,2.80
2017-08-19T15:19:40.219Z,2.77
2017-08-19T15:24:43.945Z,2.00
2017-08-19T15:29:47.073Z,1.80
2017-08-19T15:34:49.045Z,1.40
2017-08-19T15:39:51.466Z,1.73
2017-08-19T15:44:54.506Z,1.30
2017-08-19T15:49:57.648Z,1.23
2017-08-19T15:55:00.914Z,1.40
2017-08-19T16:00:04.215Z,1.90
2017-08-19T16:05:07.359Z,1.43
2017-08-19T16:10:10.571Z,1.53
2017-08-19T16:15:13.825Z,2.13
2017-08-19T16:20:16.979Z,2.70
2017-08-19T16:25:20.159Z,1.50
2017-08-19T16:30:23.190Z,1.70
2017-08-19T16:35:26.182Z,1.87
2017-08-19T16:40:28.638Z,2.10
2017-08-19T16:45:31.033Z,1.43
2017-08-19T16:50:33.943Z,1.20
2017-08-19T16:55:35.926Z,1.30
2017-08-19T17:00:38.713Z,1.30
2017-08-19T17:05:41.843Z,1.33
2017-08-19T17:10:44.962Z,1.27
2017-08-19T17:15:48.117Z,1.50
2017-08-19T17:20:51.407Z,1.50
2017-08-19T17:25:54.611Z,2.10
2017-08-19T17:30:57.948Z,1.73
2017-08-19T17:36:01.228Z,1.53
2017-08-19T17:41:04.551Z,1.77
2017-08-19T17:46:07.690Z,1.47
2017-08-19T17:51:10.810Z,2.17
2017-08-19T17:56:14.077Z,1.50
2017-08-19T18:01:17.309Z,1.60
2017-08-19T18:06:20.597Z,1.43
2017-08-19T18:11:23.838Z,1.43
2017-08-19T18:16:26.991Z,2.13
2017-08-19T18:21:30.319Z,2.20
2017-08-19T18:26:33.681Z,2.10
2017-08-19T18:31:36.885Z,1.70
2017-08-19T18:36:40.105Z,1.53
2017-08-19T18:41:43.319Z,1.40
2017-08-19T18:46:46.502Z,1.90
2017-08-19T18:51:48.464Z,2.20
2017-08-19T18:56:50.590Z,2.53
2017-08-19T19:01:52.738Z,1.60
2017-08-19T19:06:54.792Z,2.00
2017-08-19T19:11:57.774Z,1.87
2017-08-19T19:16:59.921Z,2.50
2017-08-19T19:22:01.983Z,2.00
2017-08-19T19:27:04.151Z,2.10
2017-08-19T19:32:06.198Z,2.30
2017-08-19T19:37:08.184Z,2.33
2017-08-19T19:42:10.342Z,1.90
2017-08-19T19:47:12.521Z,1.87
2017-08-19T19:52:14.495Z,2.07
2017-08-19T19:57:17.644Z,2.20
2017-08-19T20:02:21.049Z,1.60
2017-08-19T20:07:24.380Z,1.80
2017-08-19T20:12:27.588Z,2.20
2017-08-19T20:17:30.817Z,1.70
2017-08-19T20:22:34.119Z,1.67
2017-08-19T20:27:37.448Z,1.87
2017-08-19T20:32:40.990Z,3.13
2017-08-19T20:37:43.092Z,1.73
2017-08-19T20:42:46.112Z,1.90
2017-08-19T20:47:48.614Z,1.70
2017-08-19T20:52:50.866Z,2.17
2017-08-19T20:57:55.412Z,2.20
2017-08-19T21:02:57.574Z,1.97
2017-08-19T21:07:59.762Z,2.37
2017-08-19T21:13:01.890Z,2.83
2017-08-19T21:18:05.608Z,2.67
2017-08-19T21:23:07.889Z,4.93
2017-08-19T21:28:09.960Z,3.30
2017-08-19T21:33:12.004Z,3.30
2017-08-19T21:38:14.207Z,3.90
2017-08-19T21:43:16.474Z,4.50
2017-08-19T21:48:18.612Z,4.23
2017-08-19T21:53:20.661Z,4.37
2017-08-19T21:58:22.704Z,3.80
2017-08-19T22:03:24.640Z,4.03
2017-08-19T22:08:26.633Z,4.93
2017-08-19T22:13:28.789Z,4.53
2017-08-19T22:18:30.748Z,6.10
2017-08-19T22:23:32.704Z,6.03
2017-08-19T22:28:34.664Z,6.70
2017-08-19T22:33:36.632Z,8.10
2017-08-19T22:38:38.584Z,8.83
2017-08-19T22:43:40.552Z,8.47
2017-08-19T22:48:42.540Z,9.70
2017-08-19T22:53:44.492Z,11.33
2017-08-19T22:58:46.538Z,10.80
2017-08-19T23:03:48.592Z,11.97
2017-08-19T23:08:50.601Z,12.53
2017-08-19T23:13:52.586Z,12.97
2017-08-19T23:18:54.560Z,13.40
2017-08-19T23:23:56.551Z,13.70
2017-08-19T23:28:58.540Z,13.97
2017-08-19T23:34:00.542Z,13.73
2017-08-19T23:39:02.637Z,14.33
2017-08-19T23:44:04.609Z,16.43
2017-08-19T23:49:06.524Z,15.33
2017-08-19T23:54:08.471Z,15.60
2017-08-19T23:59:10.475Z,15.97
